AUA10A LOWW-LOWI
Flight info
| Callsign | AUA10A |
|---|---|
| Flight time | 1h 6m |
| Altitude | 24000 |
| Route | SOVIL DCT SITNI DCT BAGSI DCT NANIT NANIT2A |
| Aircraft | DH8D/M-SDE2E3FGRY/H |
Departure
| Time | 2026-05-06 18:24 |
|---|---|
| Airport | Vienna International Airport (LOWW) |
Arrival
| Time | 2026-05-06 19:31 |
|---|---|
| Airport | Innsbruck Airport (LOWI) |
| Time | Latitude | Longitude | Altitude | Speed | Heading |
|---|---|---|---|---|---|
| 2026-05-06 17:54 | 48.11563 | 16.57291 | 604 ft | 0 kts | 27° |
| 2026-05-06 18:18 | 48.11565 | 16.57292 | 604 ft | 3 kts | 27° |
| 2026-05-06 18:18 | 48.11610 | 16.57342 | 603 ft | 8 kts | 71° |
| 2026-05-06 18:18 | 48.11607 | 16.57371 | 603 ft | 0 kts | 111° |
| 2026-05-06 18:19 | 48.11606 | 16.57375 | 603 ft | 0 kts | 111° |
| 2026-05-06 18:19 | 48.11630 | 16.57412 | 601 ft | 9 kts | 359° |
| 2026-05-06 18:19 | 48.11718 | 16.57382 | 599 ft | 15 kts | 345° |
| 2026-05-06 18:19 | 48.11823 | 16.57338 | 597 ft | 14 kts | 344° |
| 2026-05-06 18:20 | 48.11912 | 16.57300 | 595 ft | 11 kts | 344° |
| 2026-05-06 18:20 | 48.11971 | 16.57291 | 592 ft | 8 kts | 34° |
| 2026-05-06 18:20 | 48.11998 | 16.57376 | 591 ft | 8 kts | 73° |
| 2026-05-06 18:20 | 48.12013 | 16.57473 | 590 ft | 9 kts | 90° |
| 2026-05-06 18:21 | 48.12006 | 16.57532 | 590 ft | 2 kts | 104° |
| 2026-05-06 18:21 | 48.12000 | 16.57566 | 590 ft | 3 kts | 104° |
| 2026-05-06 18:21 | 48.11997 | 16.57584 | 591 ft | 0 kts | 105° |
| 2026-05-06 18:21 | 48.11997 | 16.57585 | 591 ft | 0 kts | 105° |
| 2026-05-06 18:22 | 48.11990 | 16.57618 | 591 ft | 6 kts | 107° |
| 2026-05-06 18:22 | 48.11977 | 16.57685 | 591 ft | 7 kts | 108° |
| 2026-05-06 18:22 | 48.11956 | 16.57776 | 591 ft | 8 kts | 111° |
| 2026-05-06 18:22 | 48.11927 | 16.57839 | 592 ft | 5 kts | 152° |
| 2026-05-06 18:23 | 48.11916 | 16.57846 | 592 ft | 0 kts | 162° |
| 2026-05-06 18:23 | 48.11891 | 16.57858 | 592 ft | 22 kts | 163° |
| 2026-05-06 18:23 | 48.11437 | 16.58050 | 594 ft | 106 kts | 167° |
| 2026-05-06 18:24 | 48.10557 | 16.58407 | 695 ft | 144 kts | 167° |
| 2026-05-06 18:24 | 48.09569 | 16.58789 | 1163 ft | 151 kts | 170° |
| 2026-05-06 18:24 | 48.08537 | 16.59137 | 1732 ft | 158 kts | 169° |
| 2026-05-06 18:24 | 48.07485 | 16.59575 | 2362 ft | 159 kts | 169° |
| 2026-05-06 18:25 | 48.06446 | 16.60004 | 2960 ft | 156 kts | 174° |
| 2026-05-06 18:25 | 48.05439 | 16.59695 | 3358 ft | 159 kts | 217° |
| 2026-05-06 18:25 | 48.04685 | 16.58388 | 3754 ft | 170 kts | 230° |
| 2026-05-06 18:25 | 48.03978 | 16.56963 | 4209 ft | 179 kts | 231° |
| 2026-05-06 18:26 | 48.03214 | 16.55412 | 4645 ft | 188 kts | 231° |
| 2026-05-06 18:26 | 48.02448 | 16.53842 | 5171 ft | 192 kts | 232° |
| 2026-05-06 18:26 | 48.01664 | 16.52232 | 5774 ft | 192 kts | 233° |
| 2026-05-06 18:26 | 48.00877 | 16.50616 | 6300 ft | 196 kts | 233° |
| 2026-05-06 18:27 | 48.00085 | 16.48990 | 6784 ft | 198 kts | 233° |
| 2026-05-06 18:27 | 47.99279 | 16.47336 | 7288 ft | 199 kts | 234° |
| 2026-05-06 18:27 | 47.98454 | 16.45641 | 7738 ft | 203 kts | 234° |
| 2026-05-06 18:27 | 47.97886 | 16.43736 | 8158 ft | 208 kts | 261° |
| 2026-05-06 18:28 | 47.97918 | 16.41554 | 8616 ft | 212 kts | 271° |
| 2026-05-06 18:28 | 47.98015 | 16.39364 | 9075 ft | 214 kts | 270° |
| 2026-05-06 18:28 | 47.98112 | 16.37160 | 9566 ft | 215 kts | 271° |
| 2026-05-06 18:28 | 47.98209 | 16.34911 | 9997 ft | 218 kts | 270° |
| 2026-05-06 18:29 | 47.98303 | 16.32647 | 10448 ft | 220 kts | 270° |
| 2026-05-06 18:29 | 47.98396 | 16.30389 | 10888 ft | 222 kts | 269° |
| 2026-05-06 18:29 | 47.98488 | 16.28083 | 11334 ft | 223 kts | 269° |
| 2026-05-06 18:29 | 47.98579 | 16.25793 | 11787 ft | 223 kts | 269° |
| 2026-05-06 18:30 | 47.98669 | 16.23481 | 12168 ft | 226 kts | 269° |
| 2026-05-06 18:30 | 47.98759 | 16.21156 | 12572 ft | 227 kts | 269° |
| 2026-05-06 18:30 | 47.98849 | 16.18802 | 12963 ft | 228 kts | 269° |
| 2026-05-06 18:30 | 47.98939 | 16.16440 | 13352 ft | 229 kts | 269° |
| 2026-05-06 18:31 | 47.99029 | 16.14053 | 13724 ft | 231 kts | 268° |
| 2026-05-06 18:31 | 47.99125 | 16.11680 | 14069 ft | 232 kts | 270° |
| 2026-05-06 18:31 | 47.99297 | 16.09277 | 14418 ft | 235 kts | 272° |
| 2026-05-06 18:31 | 47.99497 | 16.06843 | 14762 ft | 236 kts | 272° |
| 2026-05-06 18:32 | 47.99692 | 16.04421 | 15072 ft | 238 kts | 272° |
| 2026-05-06 18:32 | 47.99887 | 16.01967 | 15427 ft | 238 kts | 272° |
| 2026-05-06 18:32 | 48.00079 | 15.99521 | 15718 ft | 239 kts | 272° |
| 2026-05-06 18:32 | 48.00272 | 15.97053 | 16031 ft | 240 kts | 271° |
| 2026-05-06 18:33 | 48.00463 | 15.94583 | 16383 ft | 240 kts | 271° |
| 2026-05-06 18:33 | 48.00653 | 15.92097 | 16621 ft | 242 kts | 271° |
| 2026-05-06 18:33 | 48.00844 | 15.89603 | 16908 ft | 244 kts | 271° |
| 2026-05-06 18:33 | 48.01035 | 15.87088 | 17221 ft | 243 kts | 272° |
| 2026-05-06 18:34 | 48.01224 | 15.84590 | 17450 ft | 246 kts | 271° |
| 2026-05-06 18:34 | 48.01414 | 15.82067 | 17753 ft | 245 kts | 271° |
| 2026-05-06 18:34 | 48.01606 | 15.79514 | 17983 ft | 247 kts | 271° |
| 2026-05-06 18:34 | 48.01794 | 15.76989 | 18241 ft | 248 kts | 271° |
| 2026-05-06 18:35 | 48.01986 | 15.74415 | 18487 ft | 249 kts | 271° |
| 2026-05-06 18:35 | 48.02176 | 15.71857 | 18744 ft | 249 kts | 271° |
| 2026-05-06 18:35 | 48.02368 | 15.69265 | 18959 ft | 251 kts | 271° |
| 2026-05-06 18:35 | 48.02558 | 15.66688 | 19176 ft | 252 kts | 271° |
| 2026-05-06 18:36 | 48.02751 | 15.64066 | 19411 ft | 252 kts | 271° |
| 2026-05-06 18:36 | 48.02943 | 15.61444 | 19631 ft | 253 kts | 271° |
| 2026-05-06 18:36 | 48.03132 | 15.58856 | 19847 ft | 253 kts | 271° |
| 2026-05-06 18:36 | 48.03325 | 15.56213 | 20078 ft | 252 kts | 271° |
| 2026-05-06 18:37 | 48.03513 | 15.53624 | 20235 ft | 255 kts | 271° |
| 2026-05-06 18:37 | 48.03640 | 15.51867 | 20369 ft | 254 kts | 271° |
| 2026-05-06 18:37 | 48.03894 | 15.48365 | 20727 ft | 249 kts | 271° |
| 2026-05-06 18:37 | 48.04077 | 15.45868 | 21185 ft | 238 kts | 271° |
| 2026-05-06 18:38 | 48.04253 | 15.43455 | 21537 ft | 230 kts | 270° |
| 2026-05-06 18:38 | 48.04422 | 15.41113 | 21815 ft | 224 kts | 270° |
| 2026-05-06 18:38 | 48.04586 | 15.38831 | 22032 ft | 221 kts | 270° |
| 2026-05-06 18:38 | 48.04737 | 15.36571 | 22201 ft | 217 kts | 268° |
| 2026-05-06 18:39 | 48.04788 | 15.34316 | 22353 ft | 214 kts | 264° |
| 2026-05-06 18:39 | 48.04810 | 15.32091 | 22428 ft | 216 kts | 264° |
| 2026-05-06 18:39 | 48.04834 | 15.29844 | 22483 ft | 218 kts | 264° |
| 2026-05-06 18:40 | 48.04889 | 15.25309 | 22648 ft | 221 kts | 265° |
| 2026-05-06 18:40 | 48.04921 | 15.22992 | 22736 ft | 221 kts | 265° |
| 2026-05-06 18:40 | 48.04952 | 15.20702 | 22834 ft | 221 kts | 265° |
| 2026-05-06 18:40 | 48.04985 | 15.18428 | 22927 ft | 222 kts | 265° |
| 2026-05-06 18:41 | 48.05019 | 15.16049 | 23120 ft | 237 kts | 265° |
| 2026-05-06 18:41 | 48.05056 | 15.13532 | 23446 ft | 248 kts | 265° |
| 2026-05-06 18:41 | 48.05092 | 15.10918 | 23654 ft | 250 kts | 265° |
| 2026-05-06 18:41 | 48.05125 | 15.08339 | 23716 ft | 253 kts | 265° |
| 2026-05-06 18:42 | 48.05160 | 15.05680 | 23735 ft | 257 kts | 265° |
| 2026-05-06 18:42 | 48.05195 | 15.03025 | 23746 ft | 261 kts | 265° |
| 2026-05-06 18:42 | 48.05231 | 15.00262 | 23749 ft | 265 kts | 266° |
| 2026-05-06 18:42 | 48.05267 | 14.97500 | 23745 ft | 269 kts | 266° |
| 2026-05-06 18:43 | 48.05304 | 14.94689 | 23744 ft | 274 kts | 265° |
| 2026-05-06 18:43 | 48.05339 | 14.91839 | 23744 ft | 278 kts | 266° |
| 2026-05-06 18:43 | 48.05376 | 14.88942 | 23745 ft | 282 kts | 266° |
| 2026-05-06 18:43 | 48.05412 | 14.86015 | 23746 ft | 285 kts | 265° |
| 2026-05-06 18:44 | 48.05448 | 14.83030 | 23745 ft | 289 kts | 266° |
| 2026-05-06 18:44 | 48.05478 | 14.80010 | 23742 ft | 292 kts | 266° |
| 2026-05-06 18:44 | 48.05503 | 14.76983 | 23754 ft | 294 kts | 266° |
| 2026-05-06 18:44 | 48.05527 | 14.73910 | 23759 ft | 297 kts | 266° |
| 2026-05-06 18:45 | 48.05551 | 14.70798 | 23747 ft | 299 kts | 266° |
| 2026-05-06 18:45 | 48.05575 | 14.67725 | 23750 ft | 301 kts | 266° |
| 2026-05-06 18:45 | 48.05598 | 14.64574 | 23747 ft | 303 kts | 266° |
| 2026-05-06 18:45 | 48.05613 | 14.62475 | 23744 ft | 304 kts | 266° |
| 2026-05-06 18:46 | 48.05643 | 14.58267 | 23745 ft | 306 kts | 266° |
| 2026-05-06 18:46 | 48.05664 | 14.55079 | 23747 ft | 307 kts | 266° |
| 2026-05-06 18:46 | 48.05684 | 14.51914 | 23744 ft | 308 kts | 266° |
| 2026-05-06 18:46 | 48.05703 | 14.48705 | 23742 ft | 308 kts | 266° |
| 2026-05-06 18:47 | 48.05722 | 14.45485 | 23744 ft | 309 kts | 266° |
| 2026-05-06 18:47 | 48.05740 | 14.42303 | 23737 ft | 310 kts | 266° |
| 2026-05-06 18:47 | 48.05757 | 14.39071 | 23740 ft | 310 kts | 266° |
| 2026-05-06 18:47 | 48.05773 | 14.35874 | 23739 ft | 311 kts | 266° |
| 2026-05-06 18:48 | 48.05788 | 14.32645 | 23737 ft | 311 kts | 265° |
| 2026-05-06 18:48 | 48.05723 | 14.29430 | 23717 ft | 307 kts | 257° |
| 2026-05-06 18:48 | 48.05014 | 14.26469 | 23764 ft | 300 kts | 242° |
| 2026-05-06 18:48 | 48.04096 | 14.23679 | 23752 ft | 301 kts | 241° |
| 2026-05-06 18:49 | 48.03174 | 14.20904 | 23746 ft | 301 kts | 241° |
| 2026-05-06 18:49 | 48.02232 | 14.18076 | 23749 ft | 301 kts | 241° |
| 2026-05-06 18:49 | 48.01308 | 14.15301 | 23748 ft | 302 kts | 241° |
| 2026-05-06 18:49 | 48.00370 | 14.12483 | 23745 ft | 302 kts | 241° |
| 2026-05-06 18:50 | 47.99443 | 14.09697 | 23748 ft | 302 kts | 241° |
| 2026-05-06 18:50 | 47.98512 | 14.06898 | 23755 ft | 302 kts | 241° |
| 2026-05-06 18:50 | 47.97579 | 14.04097 | 23759 ft | 302 kts | 241° |
| 2026-05-06 18:50 | 47.96651 | 14.01312 | 23760 ft | 302 kts | 241° |
| 2026-05-06 18:51 | 47.95715 | 13.98505 | 23772 ft | 302 kts | 241° |
| 2026-05-06 18:51 | 47.94772 | 13.95679 | 23767 ft | 302 kts | 241° |
| 2026-05-06 18:51 | 47.93842 | 13.92895 | 23779 ft | 302 kts | 242° |
| 2026-05-06 18:51 | 47.92898 | 13.90073 | 23774 ft | 302 kts | 241° |
| 2026-05-06 18:52 | 47.91964 | 13.87280 | 23766 ft | 303 kts | 241° |
| 2026-05-06 18:52 | 47.91019 | 13.84461 | 23720 ft | 305 kts | 242° |
| 2026-05-06 18:52 | 47.90070 | 13.81632 | 23479 ft | 307 kts | 241° |
| 2026-05-06 18:52 | 47.89122 | 13.78814 | 23213 ft | 308 kts | 241° |
| 2026-05-06 18:53 | 47.88160 | 13.75956 | 22952 ft | 308 kts | 242° |
| 2026-05-06 18:53 | 47.87201 | 13.73106 | 22701 ft | 309 kts | 241° |
| 2026-05-06 18:53 | 47.86231 | 13.70229 | 22439 ft | 310 kts | 241° |
| 2026-05-06 18:53 | 47.85273 | 13.67388 | 22178 ft | 310 kts | 242° |
| 2026-05-06 18:54 | 47.84308 | 13.64532 | 21925 ft | 310 kts | 242° |
| 2026-05-06 18:54 | 47.83334 | 13.61651 | 21657 ft | 310 kts | 241° |
| 2026-05-06 18:54 | 47.82369 | 13.58799 | 21405 ft | 310 kts | 242° |
| 2026-05-06 18:54 | 47.81410 | 13.55965 | 21147 ft | 310 kts | 242° |
| 2026-05-06 18:55 | 47.80434 | 13.53089 | 20900 ft | 310 kts | 242° |
| 2026-05-06 18:55 | 47.79462 | 13.50226 | 20645 ft | 310 kts | 242° |
| 2026-05-06 18:55 | 47.78656 | 13.47266 | 20382 ft | 312 kts | 251° |
| 2026-05-06 18:55 | 47.78136 | 13.44172 | 20140 ft | 312 kts | 254° |
| 2026-05-06 18:56 | 47.77640 | 13.41038 | 19891 ft | 313 kts | 254° |
| 2026-05-06 18:56 | 47.77139 | 13.37863 | 19638 ft | 313 kts | 254° |
| 2026-05-06 18:56 | 47.76647 | 13.34748 | 19369 ft | 313 kts | 253° |
| 2026-05-06 18:56 | 47.76149 | 13.31611 | 19130 ft | 313 kts | 253° |
| 2026-05-06 18:57 | 47.75645 | 13.28450 | 18880 ft | 312 kts | 253° |
| 2026-05-06 18:57 | 47.75146 | 13.25324 | 18626 ft | 312 kts | 253° |
| 2026-05-06 18:57 | 47.74644 | 13.22194 | 18388 ft | 313 kts | 253° |
| 2026-05-06 18:57 | 47.74144 | 13.19080 | 18132 ft | 313 kts | 253° |
| 2026-05-06 18:58 | 47.73637 | 13.15935 | 17884 ft | 313 kts | 253° |
| 2026-05-06 18:58 | 47.73133 | 13.12808 | 17642 ft | 313 kts | 253° |
| 2026-05-06 18:58 | 47.72622 | 13.09645 | 17402 ft | 313 kts | 253° |
| 2026-05-06 18:58 | 47.72115 | 13.06516 | 17161 ft | 313 kts | 253° |
| 2026-05-06 18:59 | 47.71609 | 13.03400 | 16914 ft | 313 kts | 253° |
| 2026-05-06 18:59 | 47.71099 | 13.00269 | 16672 ft | 313 kts | 253° |
| 2026-05-06 18:59 | 47.70586 | 12.97119 | 16430 ft | 313 kts | 253° |
| 2026-05-06 18:59 | 47.70072 | 12.93971 | 16184 ft | 313 kts | 253° |
| 2026-05-06 19:00 | 47.69555 | 12.90812 | 15946 ft | 313 kts | 253° |
| 2026-05-06 19:00 | 47.69047 | 12.87706 | 15877 ft | 310 kts | 253° |
| 2026-05-06 19:00 | 47.68539 | 12.84615 | 15874 ft | 314 kts | 253° |
| 2026-05-06 19:00 | 47.68196 | 12.82526 | 15878 ft | 316 kts | 253° |
| 2026-05-06 19:01 | 47.67506 | 12.78322 | 15871 ft | 311 kts | 253° |
| 2026-05-06 19:01 | 47.66992 | 12.75209 | 15851 ft | 308 kts | 253° |
| 2026-05-06 19:01 | 47.66486 | 12.72152 | 15862 ft | 305 kts | 253° |
| 2026-05-06 19:01 | 47.65987 | 12.69141 | 15858 ft | 302 kts | 253° |
| 2026-05-06 19:02 | 47.65481 | 12.66094 | 15856 ft | 300 kts | 253° |
| 2026-05-06 19:02 | 47.64986 | 12.63119 | 15883 ft | 301 kts | 253° |
| 2026-05-06 19:02 | 47.64483 | 12.60102 | 15901 ft | 303 kts | 253° |
| 2026-05-06 19:02 | 47.63990 | 12.57054 | 15879 ft | 306 kts | 255° |
| 2026-05-06 19:03 | 47.63714 | 12.53887 | 15866 ft | 308 kts | 261° |
| 2026-05-06 19:03 | 47.63542 | 12.50718 | 15894 ft | 309 kts | 262° |
| 2026-05-06 19:03 | 47.63380 | 12.47571 | 15889 ft | 310 kts | 262° |
| 2026-05-06 19:03 | 47.63219 | 12.44380 | 15867 ft | 311 kts | 262° |
| 2026-05-06 19:04 | 47.63056 | 12.41212 | 15888 ft | 310 kts | 262° |
| 2026-05-06 19:04 | 47.62893 | 12.38006 | 15899 ft | 311 kts | 262° |
| 2026-05-06 19:04 | 47.62725 | 12.34796 | 15891 ft | 312 kts | 261° |
| 2026-05-06 19:04 | 47.62560 | 12.31607 | 15882 ft | 312 kts | 261° |
| 2026-05-06 19:05 | 47.62387 | 12.28406 | 15876 ft | 312 kts | 261° |
| 2026-05-06 19:05 | 47.62215 | 12.25162 | 15901 ft | 312 kts | 261° |
| 2026-05-06 19:05 | 47.62048 | 12.21955 | 15887 ft | 313 kts | 261° |
| 2026-05-06 19:05 | 47.61879 | 12.18753 | 15892 ft | 316 kts | 261° |
| 2026-05-06 19:06 | 47.61703 | 12.15491 | 15895 ft | 320 kts | 262° |
| 2026-05-06 19:06 | 47.61519 | 12.12154 | 15872 ft | 322 kts | 261° |
| 2026-05-06 19:06 | 47.61337 | 12.08860 | 15894 ft | 324 kts | 261° |
| 2026-05-06 19:06 | 47.61154 | 12.05535 | 15893 ft | 326 kts | 261° |
| 2026-05-06 19:07 | 47.60971 | 12.02173 | 15899 ft | 326 kts | 261° |
| 2026-05-06 19:07 | 47.60850 | 11.99949 | 15880 ft | 327 kts | 262° |
| 2026-05-06 19:07 | 47.60597 | 11.95480 | 15882 ft | 328 kts | 262° |
| 2026-05-06 19:07 | 47.60407 | 11.92135 | 15888 ft | 328 kts | 262° |
| 2026-05-06 19:08 | 47.60217 | 11.88757 | 15910 ft | 328 kts | 262° |
| 2026-05-06 19:08 | 47.60022 | 11.85389 | 15888 ft | 329 kts | 262° |
| 2026-05-06 19:08 | 47.59826 | 11.82006 | 15907 ft | 329 kts | 262° |
| 2026-05-06 19:08 | 47.59628 | 11.78616 | 15898 ft | 330 kts | 262° |
| 2026-05-06 19:09 | 47.59432 | 11.75266 | 15912 ft | 330 kts | 262° |
| 2026-05-06 19:09 | 47.59232 | 11.71843 | 15731 ft | 331 kts | 262° |
| 2026-05-06 19:09 | 47.59032 | 11.68468 | 15485 ft | 332 kts | 262° |
| 2026-05-06 19:09 | 47.58824 | 11.65060 | 15129 ft | 329 kts | 262° |
| 2026-05-06 19:10 | 47.58619 | 11.61720 | 14758 ft | 326 kts | 262° |
| 2026-05-06 19:10 | 47.58413 | 11.58392 | 14373 ft | 325 kts | 262° |
| 2026-05-06 19:10 | 47.58205 | 11.55098 | 14017 ft | 322 kts | 262° |
| 2026-05-06 19:10 | 47.57996 | 11.51829 | 13927 ft | 312 kts | 261° |
| 2026-05-06 19:11 | 47.57795 | 11.48667 | 13920 ft | 311 kts | 262° |
| 2026-05-06 19:11 | 47.57592 | 11.45432 | 13904 ft | 316 kts | 262° |
| 2026-05-06 19:11 | 47.57388 | 11.42203 | 13756 ft | 324 kts | 262° |
| 2026-05-06 19:11 | 47.57170 | 11.38870 | 13510 ft | 327 kts | 262° |
| 2026-05-06 19:12 | 47.56937 | 11.35466 | 13250 ft | 332 kts | 262° |
| 2026-05-06 19:12 | 47.56704 | 11.32155 | 12990 ft | 314 kts | 261° |
| 2026-05-06 19:12 | 47.56482 | 11.28993 | 12933 ft | 312 kts | 261° |
| 2026-05-06 19:12 | 47.56256 | 11.25746 | 12887 ft | 317 kts | 261° |
| 2026-05-06 19:13 | 47.56032 | 11.22522 | 12911 ft | 318 kts | 261° |
| 2026-05-06 19:13 | 47.55799 | 11.19234 | 12916 ft | 321 kts | 261° |
| 2026-05-06 19:13 | 47.55563 | 11.15934 | 12913 ft | 324 kts | 261° |
| 2026-05-06 19:13 | 47.55319 | 11.12592 | 12918 ft | 325 kts | 261° |
| 2026-05-06 19:14 | 47.55076 | 11.09272 | 12910 ft | 327 kts | 261° |
| 2026-05-06 19:14 | 47.54832 | 11.05940 | 12905 ft | 328 kts | 261° |
| 2026-05-06 19:14 | 47.54580 | 11.02586 | 12906 ft | 329 kts | 261° |
| 2026-05-06 19:14 | 47.54327 | 10.99223 | 12910 ft | 329 kts | 261° |
| 2026-05-06 19:15 | 47.54075 | 10.95888 | 12901 ft | 317 kts | 261° |
| 2026-05-06 19:15 | 47.53839 | 10.92763 | 12878 ft | 297 kts | 261° |
| 2026-05-06 19:15 | 47.53617 | 10.89815 | 12902 ft | 278 kts | 261° |
| 2026-05-06 19:15 | 47.53422 | 10.87109 | 12911 ft | 258 kts | 261° |
| 2026-05-06 19:16 | 47.53238 | 10.84446 | 12900 ft | 258 kts | 261° |
| 2026-05-06 19:16 | 47.53057 | 10.81841 | 12909 ft | 258 kts | 261° |
| 2026-05-06 19:16 | 47.52877 | 10.79181 | 12911 ft | 259 kts | 261° |
| 2026-05-06 19:16 | 47.52697 | 10.76555 | 12912 ft | 260 kts | 261° |
| 2026-05-06 19:17 | 47.52514 | 10.73881 | 12907 ft | 261 kts | 261° |
| 2026-05-06 19:17 | 47.52331 | 10.71214 | 12907 ft | 261 kts | 262° |
| 2026-05-06 19:17 | 47.52145 | 10.68501 | 12908 ft | 261 kts | 261° |
| 2026-05-06 19:17 | 47.51962 | 10.65853 | 12917 ft | 261 kts | 261° |
| 2026-05-06 19:18 | 47.51775 | 10.63163 | 12909 ft | 261 kts | 261° |
| 2026-05-06 19:18 | 47.51594 | 10.60505 | 12919 ft | 261 kts | 261° |
| 2026-05-06 19:18 | 47.51410 | 10.57821 | 12917 ft | 262 kts | 261° |
| 2026-05-06 19:18 | 47.51160 | 10.55175 | 12905 ft | 260 kts | 251° |
| 2026-05-06 19:19 | 47.50182 | 10.53049 | 12893 ft | 251 kts | 216° |
| 2026-05-06 19:19 | 47.48567 | 10.52255 | 12904 ft | 247 kts | 180° |
| 2026-05-06 19:19 | 47.46950 | 10.53031 | 12922 ft | 252 kts | 151° |
| 2026-05-06 19:19 | 47.45493 | 10.54603 | 12923 ft | 261 kts | 144° |
| 2026-05-06 19:20 | 47.44099 | 10.56367 | 12800 ft | 272 kts | 141° |
| 2026-05-06 19:20 | 47.42723 | 10.58286 | 12547 ft | 264 kts | 138° |
| 2026-05-06 19:20 | 47.41471 | 10.60148 | 12285 ft | 253 kts | 137° |
| 2026-05-06 19:20 | 47.40255 | 10.62013 | 12008 ft | 249 kts | 136° |
| 2026-05-06 19:21 | 47.39075 | 10.63864 | 11749 ft | 248 kts | 135° |
| 2026-05-06 19:21 | 47.37915 | 10.65725 | 11499 ft | 247 kts | 135° |
| 2026-05-06 19:21 | 47.36763 | 10.67606 | 11254 ft | 251 kts | 135° |
| 2026-05-06 19:21 | 47.35583 | 10.69553 | 11004 ft | 251 kts | 134° |
| 2026-05-06 19:22 | 47.34448 | 10.71452 | 10785 ft | 247 kts | 134° |
| 2026-05-06 19:22 | 47.33323 | 10.73341 | 10722 ft | 239 kts | 133° |
| 2026-05-06 19:22 | 47.32219 | 10.75198 | 10717 ft | 246 kts | 133° |
| 2026-05-06 19:22 | 47.31089 | 10.77105 | 10707 ft | 244 kts | 133° |
| 2026-05-06 19:23 | 47.30018 | 10.79008 | 10715 ft | 243 kts | 126° |
| 2026-05-06 19:23 | 47.29541 | 10.81346 | 10735 ft | 242 kts | 93° |
| 2026-05-06 19:23 | 47.29601 | 10.83837 | 10718 ft | 243 kts | 91° |
| 2026-05-06 19:23 | 47.29655 | 10.86301 | 10711 ft | 235 kts | 91° |
| 2026-05-06 19:24 | 47.29726 | 10.88581 | 10673 ft | 212 kts | 89° |
| 2026-05-06 19:24 | 47.29831 | 10.90628 | 10492 ft | 194 kts | 89° |
| 2026-05-06 19:24 | 47.29924 | 10.92577 | 10048 ft | 189 kts | 90° |
| 2026-05-06 19:24 | 47.30009 | 10.94495 | 9598 ft | 185 kts | 89° |
| 2026-05-06 19:25 | 47.30085 | 10.96337 | 9138 ft | 181 kts | 90° |
| 2026-05-06 19:25 | 47.30160 | 10.98149 | 8672 ft | 172 kts | 90° |
| 2026-05-06 19:25 | 47.30233 | 10.99878 | 8162 ft | 171 kts | 90° |
| 2026-05-06 19:25 | 47.30301 | 11.01618 | 7588 ft | 175 kts | 91° |
| 2026-05-06 19:26 | 47.30368 | 11.03380 | 7188 ft | 169 kts | 91° |
| 2026-05-06 19:26 | 47.30425 | 11.05143 | 7012 ft | 175 kts | 91° |
| 2026-05-06 19:26 | 47.30485 | 11.06914 | 6949 ft | 170 kts | 91° |
| 2026-05-06 19:26 | 47.30544 | 11.08647 | 6832 ft | 172 kts | 92° |
| 2026-05-06 19:27 | 47.30603 | 11.10438 | 6611 ft | 177 kts | 91° |
| 2026-05-06 19:27 | 47.30564 | 11.12219 | 6357 ft | 175 kts | 109° |
| 2026-05-06 19:27 | 47.30136 | 11.13890 | 6118 ft | 174 kts | 118° |
| 2026-05-06 19:27 | 47.29637 | 11.15546 | 5809 ft | 180 kts | 118° |
| 2026-05-06 19:28 | 47.29125 | 11.17202 | 5363 ft | 179 kts | 118° |
| 2026-05-06 19:28 | 47.28619 | 11.18830 | 4939 ft | 172 kts | 118° |
| 2026-05-06 19:28 | 47.28130 | 11.20390 | 4576 ft | 162 kts | 119° |
| 2026-05-06 19:28 | 47.27628 | 11.21779 | 4274 ft | 149 kts | 121° |
| 2026-05-06 19:29 | 47.27090 | 11.23199 | 4086 ft | 163 kts | 122° |
| 2026-05-06 19:29 | 47.26526 | 11.24642 | 3783 ft | 161 kts | 121° |
| 2026-05-06 19:29 | 47.26021 | 11.26096 | 3249 ft | 165 kts | 114° |
| 2026-05-06 19:29 | 47.25725 | 11.27710 | 2790 ft | 162 kts | 102° |
| 2026-05-06 19:30 | 47.25661 | 11.29297 | 2508 ft | 148 kts | 92° |
| 2026-05-06 19:30 | 47.25681 | 11.30692 | 2331 ft | 133 kts | 89° |
| 2026-05-06 19:30 | 47.25779 | 11.32071 | 2143 ft | 138 kts | 89° |
| 2026-05-06 19:30 | 47.25927 | 11.33488 | 1967 ft | 138 kts | 88° |
| 2026-05-06 19:31 | 47.26049 | 11.34688 | 1913 ft | 91 kts | 81° |
| 2026-05-06 19:31 | 47.26104 | 11.35190 | 1910 ft | 19 kts | 87° |
| 2026-05-06 19:31 | 47.25963 | 11.35282 | 1910 ft | 5 kts | 172° |
| 2026-05-06 19:32 | 47.25912 | 11.35280 | 1910 ft | 7 kts | 213° |
| 2026-05-06 19:32 | 47.25894 | 11.35216 | 1910 ft | 9 kts | 258° |
| 2026-05-06 19:32 | 47.25883 | 11.35117 | 1911 ft | 9 kts | 259° |
| 2026-05-06 19:32 | 47.25873 | 11.35026 | 1911 ft | 5 kts | 262° |
| 2026-05-06 19:33 | 47.25866 | 11.34991 | 1911 ft | 2 kts | 206° |
| 2026-05-06 19:33 | 47.25838 | 11.34992 | 1910 ft | 3 kts | 172° |
| 2026-05-06 19:33 | 47.25822 | 11.34995 | 1910 ft | 0 kts | 171° |
| 2026-05-06 19:33 | 47.25818 | 11.34996 | 1910 ft | 0 kts | 171° |